Hovedside
METAR-TAF:

METAR-TAF

Lufthavner :

Tarawa, Kiribati

breddegrad: 01-21N, lengdegrad: 172-55E, høyde over havet: 2 m

Gjeldene værobservasjon

Denne rapporten ble laget for 54 minutter siden, klokken 10:00 UTC
Vind 3 kt fra Sørøst
Temperatur 28°C
Luftfuktighet 74%
Trykk 1010 hPa
Sikt 10 km eller mer
Få skyer i en høyde av 2000 ft

METAR: NGTA 211000Z 13003KT 9999 FEW020 28/23 Q1010

Tid: 00:54 (10:54 UTC)

Varsel

Denne rapporten ble laget for 5 timer og 38 minutter siden, klokken 05:16 UTC
Varsel gyldig fra 21. klokken 06 UTC til 22. klokken 06 UTC
Vind 8 kt fra Sørøst
Sikt 10 km eller mer
Spredte skyer i en høyde av 2000 ft
Brutte skyer i en høyde av 10000 ft

TAF: NGTA 210516Z 2106/2206 14008KT 9999 SCT020 BKN100

Værobservasjoner og værvarsel for over 4000 flyplasser (METAR- og TAF-rapporter).

Tilgjengelige stasjoner er representert av de røde og gule prikkene på kartet.

Hold musepekeren over prikken for å se navnet på stasjonen.

Klikk så for å se værobservasjoner og -varsler.

For å forandre kartet kan du klikke på den grønne knappen med svart kryss for å zoome inn, på den grønne knappen med strek for å zoome ut, eller på de grønne pilene for å se tilstøtende kart.


METAR-TAF: